Time;durP1;ratioP1;P1;durP2;ratioP2;P2;SDS_P1;SDS_P2;PMS_P1;PMS_P2;Temp;Humidity;BMP_temperature;BMP_pressure;BME280_temperature;BME280_humidity;BME280_pressure;Samples;Min_cycle;Max_cycle;Signal;HPM_P1;HPM_P2
2024/04/12 00:02:11;;;;;;;5.75;0.70;;;;;;;;;;5366175;26;20375;-76
2024/04/12 00:04:45;;;;;;;7.53;0.60;;;;;;;;;;5369057;26;20020;-75
2024/04/12 00:07:15;;;;;;;4.10;0.50;;;;;;;;;;5369722;26;20020;-78
2024/04/12 00:09:53;;;;;;;2.00;0.20;;;;;;;;;;5396199;26;20034;-80
2024/04/12 00:12:26;;;;;;;5.05;1.00;;;;;;;;;;5367478;26;20024;-77
2024/04/12 00:15:16;;;;;;;2.55;0.75;;;;;;;;;;5369207;26;20028;-75
2024/04/12 00:17:47;;;;;;;2.03;0.40;;;;;;;;;;5369569;26;20435;-77
2024/04/12 00:20:20;;;;;;;2.65;0.43;;;;;;;;;;5370894;26;20020;-75
2024/04/12 00:22:55;;;;;;;3.05;0.40;;;;;;;;;;5369737;26;20024;-76
2024/04/12 00:25:28;;;;;;;8.75;0.65;;;;;;;;;;5368766;26;20024;-76
2024/04/12 00:28:01;;;;;;;1.17;0.30;;;;;;;;;;5368654;26;20028;-77
2024/04/12 00:30:41;;;;;;;0.77;0.40;;;;;;;;;;5367626;26;20021;-75
2024/04/12 00:33:12;;;;;;;5.07;0.50;;;;;;;;;;5368713;26;20032;-76
2024/04/12 00:35:49;;;;;;;3.70;0.40;;;;;;;;;;5368280;26;20007;-75
2024/04/12 00:38:23;;;;;;;2.45;0.30;;;;;;;;;;5395967;26;19996;-73
2024/04/12 00:40:54;;;;;;;0.75;0.35;;;;;;;;;;5394814;26;19992;-75
2024/04/12 00:43:27;;;;;;;2.42;0.35;;;;;;;;;;5366552;26;20556;-77
2024/04/12 00:45:58;;;;;;;1.60;0.38;;;;;;;;;;5367275;26;19996;-73
2024/04/12 00:48:29;;;;;;;9.60;0.80;;;;;;;;;;5368375;26;20044;-75
2024/04/12 00:51:09;;;;;;;2.08;0.43;;;;;;;;;;5367942;26;20024;-78
2024/04/12 00:53:40;;;;;;;2.33;0.57;;;;;;;;;;5368170;26;20020;-76
2024/04/12 00:56:14;;;;;;;2.80;0.47;;;;;;;;;;5369208;26;19996;-77
2024/04/12 00:58:47;;;;;;;8.48;1.00;;;;;;;;;;5368429;26;20028;-76
2024/04/12 01:01:18;;;;;;;7.57;0.70;;;;;;;;;;5368850;26;20702;-76
2024/04/12 01:03:49;;;;;;;2.10;0.43;;;;;;;;;;5368844;26;20025;-74
2024/04/12 01:06:26;;;;;;;2.58;0.47;;;;;;;;;;5368884;26;20044;-76
2024/04/12 01:09:13;;;;;;;3.17;0.70;;;;;;;;;;5368797;26;20024;-75
2024/04/12 01:11:44;;;;;;;4.50;0.68;;;;;;;;;;5368027;26;20035;-77
2024/04/12 01:14:15;;;;;;;8.13;1.00;;;;;;;;;;5367635;26;20063;-75
2024/04/12 01:16:47;;;;;;;6.43;0.73;;;;;;;;;;5365271;26;20589;-75
2024/04/12 01:19:18;;;;;;;7.20;0.85;;;;;;;;;;5368294;26;20036;-74
2024/04/12 01:21:48;;;;;;;5.72;1.35;;;;;;;;;;5366432;26;20006;-73
2024/04/12 01:24:21;;;;;;;7.35;0.85;;;;;;;;;;5368101;26;20028;-75
2024/04/12 01:26:53;;;;;;;6.15;0.90;;;;;;;;;;5368114;26;20032;-76
2024/04/12 01:29:24;;;;;;;8.27;0.75;;;;;;;;;;5365658;26;19996;-77
2024/04/12 01:31:55;;;;;;;9.55;0.65;;;;;;;;;;5395743;26;19996;-75
2024/04/12 01:34:26;;;;;;;3.38;0.75;;;;;;;;;;5368058;26;20020;-77
2024/04/12 01:37:00;;;;;;;5.63;0.63;;;;;;;;;;5367799;26;20028;-74
2024/04/12 01:39:34;;;;;;;8.38;0.65;;;;;;;;;;5368594;26;20028;-74
2024/04/12 01:42:06;;;;;;;7.88;1.58;;;;;;;;;;5367905;26;20024;-75
2024/04/12 01:44:38;;;;;;;4.25;0.57;;;;;;;;;;5368446;26;20021;-78
2024/04/12 01:47:17;;;;;;;6.50;0.93;;;;;;;;;;5367990;26;20028;-75
2024/04/12 01:49:48;;;;;;;7.70;0.73;;;;;;;;;;5368042;26;20032;-75
2024/04/12 01:52:25;;;;;;;7.78;0.70;;;;;;;;;;5368016;26;20024;-77
2024/04/12 01:55:05;;;;;;;9.75;0.85;;;;;;;;;;5367936;26;20558;-74
2024/04/12 01:57:41;;;;;;;8.63;1.35;;;;;;;;;;5365869;26;19996;-76
2024/04/12 02:00:16;;;;;;;6.65;0.70;;;;;;;;;;5368101;26;20020;-76
2024/04/12 02:02:53;;;;;;;6.95;1.05;;;;;;;;;;5366167;26;20512;-75
2024/04/12 02:05:34;;;;;;;4.68;0.75;;;;;;;;;;5367059;26;20028;-77
2024/04/12 02:08:10;;;;;;;6.43;0.80;;;;;;;;;;5367910;26;20048;-76
2024/04/12 02:10:41;;;;;;;6.97;0.90;;;;;;;;;;5366307;26;20634;-77
2024/04/12 02:13:20;;;;;;;7.70;0.80;;;;;;;;;;5366998;26;20028;-73
2024/04/12 02:15:53;;;;;;;7.88;1.00;;;;;;;;;;5367398;26;19996;-76
2024/04/12 02:18:32;;;;;;;8.50;0.98;;;;;;;;;;5367217;26;20002;-75
2024/04/12 02:21:06;;;;;;;8.18;1.05;;;;;;;;;;5367223;26;20030;-79
2024/04/12 02:23:38;;;;;;;5.40;0.82;;;;;;;;;;5394221;26;20010;-77
2024/04/12 02:26:10;;;;;;;8.80;1.10;;;;;;;;;;5364669;26;20479;-77
2024/04/12 02:28:43;;;;;;;8.85;0.98;;;;;;;;;;5365069;26;20006;-78
2024/04/12 02:31:13;;;;;;;8.23;0.93;;;;;;;;;;5367169;26;20374;-77
2024/04/12 02:33:44;;;;;;;8.45;1.20;;;;;;;;;;5368103;26;20037;-75
2024/04/12 02:36:16;;;;;;;7.65;0.93;;;;;;;;;;5367236;26;19996;-76
2024/04/12 02:38:50;;;;;;;10.52;1.00;;;;;;;;;;5365362;26;20450;-76
2024/04/12 02:41:20;;;;;;;10.55;1.23;;;;;;;;;;5366634;26;20028;-77
2024/04/12 02:43:55;;;;;;;9.60;1.20;;;;;;;;;;5367308;26;20028;-76
2024/04/12 02:46:26;;;;;;;10.20;1.05;;;;;;;;;;5367109;26;20467;-73
2024/04/12 02:48:59;;;;;;;10.43;0.90;;;;;;;;;;5367290;26;20009;-75
2024/04/12 02:51:30;;;;;;;10.75;1.10;;;;;;;;;;5367206;26;20025;-76
2024/04/12 02:54:00;;;;;;;7.45;1.08;;;;;;;;;;5369060;26;20651;-75
2024/04/12 02:56:33;;;;;;;5.15;0.73;;;;;;;;;;5370498;26;20056;-75
2024/04/12 02:59:05;;;;;;;5.07;0.68;;;;;;;;;;5370072;26;20011;-75
2024/04/12 03:01:36;;;;;;;10.20;1.05;;;;;;;;;;5366059;26;20006;-77
2024/04/12 03:04:10;;;;;;;13.35;1.20;;;;;;;;;;5365140;26;19996;-76
2024/04/12 03:06:41;;;;;;;5.70;1.33;;;;;;;;;;5367018;26;20006;-73
2024/04/12 03:09:12;;;;;;;9.93;1.38;;;;;;;;;;5367099;26;20007;-76
2024/04/12 03:11:43;;;;;;;6.60;1.10;;;;;;;;;;5366995;26;20020;-74
2024/04/12 03:14:15;;;;;;;4.70;0.75;;;;;;;;;;5366334;26;20028;-74
2024/04/12 03:16:46;;;;;;;7.40;0.90;;;;;;;;;;5367806;26;20032;-75
2024/04/12 03:19:18;;;;;;;7.95;0.82;;;;;;;;;;5366760;26;20007;-76
2024/04/12 03:21:51;;;;;;;13.02;0.90;;;;;;;;;;5338101;26;20012;-76
2024/04/12 03:24:21;;;;;;;5.05;0.85;;;;;;;;;;5366311;26;20043;-74
2024/04/12 03:26:54;;;;;;;13.23;0.88;;;;;;;;;;5365827;26;20041;-75
2024/04/12 03:29:25;;;;;;;10.77;1.33;;;;;;;;;;5366065;26;20483;-75
2024/04/12 03:31:58;;;;;;;8.10;0.98;;;;;;;;;;5367099;26;20028;-75
2024/04/12 03:34:29;;;;;;;16.00;1.05;;;;;;;;;;5367942;26;20645;-76
2024/04/12 03:37:23;;;;;;;6.93;1.05;;;;;;;;;;5367603;26;20032;-76
2024/04/12 03:40:00;;;;;;;10.77;0.85;;;;;;;;;;5369725;26;20611;-74
2024/04/12 03:42:30;;;;;;;10.25;1.25;;;;;;;;;;5369740;26;20024;-76
2024/04/12 03:45:12;;;;;;;11.05;1.10;;;;;;;;;;5397220;26;20363;-76
2024/04/12 03:47:50;;;;;;;16.20;1.13;;;;;;;;;;5369955;26;20032;-76
2024/04/12 03:50:20;;;;;;;5.45;0.70;;;;;;;;;;5397176;26;20020;-76
2024/04/12 03:52:51;;;;;;;3.50;0.95;;;;;;;;;;5369748;26;20024;-77
2024/04/12 03:55:22;;;;;;;4.85;0.77;;;;;;;;;;5370298;26;20021;-77
2024/04/12 03:57:54;;;;;;;5.82;1.20;;;;;;;;;;5367633;26;20541;-75
2024/04/12 04:00:25;;;;;;;5.60;0.77;;;;;;;;;;5370192;26;20024;-75
2024/04/12 04:02:58;;;;;;;8.30;0.82;;;;;;;;;;5369366;26;20036;-75
2024/04/12 04:05:30;;;;;;;4.82;0.70;;;;;;;;;;5370731;26;20471;-74
2024/04/12 04:08:00;;;;;;;6.78;0.63;;;;;;;;;;5369564;26;20475;-78
2024/04/12 04:10:31;;;;;;;11.52;1.02;;;;;;;;;;5369789;26;20028;-76
2024/04/12 04:13:03;;;;;;;7.00;0.90;;;;;;;;;;5369561;26;20528;-74
2024/04/12 04:15:36;;;;;;;6.43;0.75;;;;;;;;;;5369333;26;20032;-78
2024/04/12 04:18:10;;;;;;;6.38;0.80;;;;;;;;;;5368890;26;20006;-74
2024/04/12 04:20:41;;;;;;;6.00;1.00;;;;;;;;;;5366847;26;20513;-75
2024/04/12 04:23:11;;;;;;;4.75;0.70;;;;;;;;;;5396840;26;20032;-74
2024/04/12 04:25:44;;;;;;;5.60;0.85;;;;;;;;;;5369462;26;20610;-76
2024/04/12 04:28:17;;;;;;;5.07;0.90;;;;;;;;;;5369307;26;20031;-73
2024/04/12 04:30:48;;;;;;;4.40;0.70;;;;;;;;;;5369004;26;20360;-75
2024/04/12 04:33:21;;;;;;;8.55;1.25;;;;;;;;;;5368586;26;21072;-76
2024/04/12 04:35:52;;;;;;;3.75;0.70;;;;;;;;;;5368965;26;20032;-76
2024/04/12 04:38:24;;;;;;;7.68;1.65;;;;;;;;;;5369200;26;20358;-74
2024/04/12 04:40:58;;;;;;;7.82;0.85;;;;;;;;;;5368390;26;20495;-76
2024/04/12 04:43:30;;;;;;;4.10;0.77;;;;;;;;;;5369108;26;20040;-75
2024/04/12 04:46:44;;;;;;;13.40;1.20;;;;;;;;;;5368712;26;20024;-77
2024/04/12 04:48:54;;;;;;;9.32;1.20;;;;;;;;;;5366974;26;20000;-75
2024/04/12 04:51:26;;;;;;;5.88;1.10;;;;;;;;;;5369616;26;20024;-76
2024/04/12 04:53:59;;;;;;;7.03;0.75;;;;;;;;;;5368893;26;20390;-75
2024/04/12 04:56:30;;;;;;;4.72;1.35;;;;;;;;;;5368826;26;19996;-74
2024/04/12 04:59:01;;;;;;;4.30;0.77;;;;;;;;;;5368748;26;20497;-74
2024/04/12 05:01:36;;;;;;;8.30;1.33;;;;;;;;;;5368430;26;20047;-74
2024/04/12 05:04:15;;;;;;;9.60;1.10;;;;;;;;;;5368707;26;20028;-77
2024/04/12 05:06:47;;;;;;;10.15;1.05;;;;;;;;;;5368303;26;20022;-76
2024/04/12 05:09:19;;;;;;;9.23;0.65;;;;;;;;;;5368435;26;19996;-75
2024/04/12 05:11:52;;;;;;;4.80;0.90;;;;;;;;;;5368336;26;20039;-75
2024/04/12 05:17:09;;;;;;;4.28;0.88;;;;;;;;;;5368291;26;20040;-77
2024/04/12 05:19:40;;;;;;;4.90;0.63;;;;;;;;;;5368460;26;19996;-74
2024/04/12 05:22:13;;;;;;;7.78;1.17;;;;;;;;;;5368852;26;20541;-75
2024/04/12 05:24:43;;;;;;;12.07;0.93;;;;;;;;;;5367719;26;20492;-77
2024/04/12 05:27:13;;;;;;;7.00;1.00;;;;;;;;;;5368626;26;20475;-77
2024/04/12 05:29:45;;;;;;;8.55;1.10;;;;;;;;;;5368074;26;20024;-74
2024/04/12 05:32:20;;;;;;;5.10;0.65;;;;;;;;;;5368255;26;20363;-77
2024/04/12 05:34:50;;;;;;;11.85;1.42;;;;;;;;;;5368503;26;20047;-75
2024/04/12 05:37:20;;;;;;;3.20;0.50;;;;;;;;;;5368260;26;20037;-75
2024/04/12 05:39:56;;;;;;;8.13;0.90;;;;;;;;;;5367861;26;20000;-75
2024/04/12 05:42:27;;;;;;;5.72;1.00;;;;;;;;;;5368052;26;20025;-75
2024/04/12 05:45:04;;;;;;;6.45;0.73;;;;;;;;;;5368984;26;20498;-78
2024/04/12 05:47:35;;;;;;;4.60;0.80;;;;;;;;;;5367736;26;20029;-75
2024/04/12 05:50:06;;;;;;;7.57;1.10;;;;;;;;;;5368540;26;20029;-76
2024/04/12 05:52:36;;;;;;;8.63;0.90;;;;;;;;;;5367817;26;20370;-76
2024/04/12 05:55:13;;;;;;;9.23;0.93;;;;;;;;;;5367804;26;20024;-75
2024/04/12 05:57:44;;;;;;;6.45;0.88;;;;;;;;;;5367525;26;20028;-75
2024/04/12 06:00:14;;;;;;;5.32;0.60;;;;;;;;;;5365901;26;20465;-76
2024/04/12 06:02:45;;;;;;;10.55;0.82;;;;;;;;;;5365894;26;19996;-78
2024/04/12 06:05:18;;;;;;;6.22;1.27;;;;;;;;;;5367433;26;20389;-76
2024/04/12 06:07:49;;;;;;;3.95;0.73;;;;;;;;;;5367797;26;20108;-75
2024/04/12 06:10:22;;;;;;;7.32;0.95;;;;;;;;;;5367450;26;20440;-75
2024/04/12 06:12:54;;;;;;;11.13;1.17;;;;;;;;;;5365615;26;20002;-73
2024/04/12 06:15:28;;;;;;;5.82;0.85;;;;;;;;;;5367692;26;20373;-76
2024/04/12 06:17:59;;;;;;;7.32;1.08;;;;;;;;;;5367208;26;20016;-76
2024/04/12 06:20:33;;;;;;;3.92;1.02;;;;;;;;;;5367444;26;20338;-75
2024/04/12 06:23:10;;;;;;;10.23;1.30;;;;;;;;;;5367736;26;20020;-76
2024/04/12 06:25:49;;;;;;;6.43;0.77;;;;;;;;;;5367321;26;20020;-75
2024/04/12 06:28:19;;;;;;;8.30;0.93;;;;;;;;;;5367120;26;20020;-75
2024/04/12 06:30:59;;;;;;;7.00;0.82;;;;;;;;;;5367689;26;20032;-75
2024/04/12 06:33:30;;;;;;;7.80;1.08;;;;;;;;;;5367318;26;20475;-78
2024/04/12 06:36:11;;;;;;;5.40;0.75;;;;;;;;;;5367170;26;20040;-75
2024/04/12 06:38:41;;;;;;;;;;;;;;;;;;5367648;26;20476;-76
2024/04/12 06:41:15;;;;;;;5.25;0.80;;;;;;;;;;5367018;26;19954;-74
2024/04/12 06:43:50;;;;;;;6.38;0.80;;;;;;;;;;5367089;26;20024;-74
2024/04/12 06:46:27;;;;;;;5.82;1.02;;;;;;;;;;5367041;26;20025;-74
2024/04/12 06:49:07;;;;;;;4.63;0.70;;;;;;;;;;5366817;26;20032;-74
2024/04/12 06:52:02;;;;;;;10.85;1.15;;;;;;;;;;5366786;26;20379;-75
2024/04/12 06:54:35;;;;;;;10.82;1.25;;;;;;;;;;5366821;26;20028;-76
2024/04/12 06:57:17;;;;;;;8.00;1.00;;;;;;;;;;5366757;26;20000;-75
2024/04/12 06:59:58;;;;;;;4.43;0.82;;;;;;;;;;5366417;26;19996;-74
2024/04/12 07:02:29;;;;;;;5.75;1.00;;;;;;;;;;5366513;26;20006;-77
2024/04/12 07:05:01;;;;;;;10.07;1.13;;;;;;;;;;5367019;26;19997;-76
2024/04/12 07:07:32;;;;;;;11.95;1.02;;;;;;;;;;5366231;26;20036;-74
2024/04/12 07:10:09;;;;;;;8.13;1.00;;;;;;;;;;5367842;26;21040;-76
2024/04/12 07:12:43;;;;;;;6.40;1.20;;;;;;;;;;5369029;26;20032;-76
2024/04/12 07:15:21;;;;;;;12.35;1.05;;;;;;;;;;5368768;26;20020;-77
2024/04/12 07:17:51;;;;;;;6.80;0.73;;;;;;;;;;5369546;26;20032;-74
2024/04/12 07:20:27;;;;;;;12.25;1.40;;;;;;;;;;5369384;26;20006;-76
2024/04/12 07:22:58;;;;;;;6.88;0.95;;;;;;;;;;5369744;26;20147;-77
2024/04/12 07:25:29;;;;;;;5.30;0.77;;;;;;;;;;5370255;26;20434;-75
2024/04/12 07:28:00;;;;;;;4.57;0.80;;;;;;;;;;5369688;26;20028;-75
2024/04/12 07:30:31;;;;;;;6.88;0.80;;;;;;;;;;5369860;26;20547;-76
2024/04/12 07:33:05;;;;;;;6.43;1.10;;;;;;;;;;5367436;26;20024;-75
2024/04/12 07:35:36;;;;;;;7.63;1.00;;;;;;;;;;5369893;26;20028;-76
2024/04/12 07:38:08;;;;;;;7.45;0.93;;;;;;;;;;5369791;26;20028;-74
2024/04/12 07:40:40;;;;;;;6.25;1.17;;;;;;;;;;5369502;26;20453;-75
2024/04/12 07:43:11;;;;;;;7.90;0.70;;;;;;;;;;5370033;26;20036;-74
2024/04/12 07:45:49;;;;;;;10.45;1.80;;;;;;;;;;5370163;26;20012;-75
2024/04/12 07:51:00;;;;;;;5.85;0.85;;;;;;;;;;5369728;26;20048;-76
2024/04/12 07:53:37;;;;;;;8.68;1.63;;;;;;;;;;5369619;26;20043;-77
2024/04/12 07:56:08;;;;;;;4.55;0.75;;;;;;;;;;5367866;26;20474;-75
2024/04/12 07:58:42;;;;;;;5.68;0.63;;;;;;;;;;5369907;26;20012;-76
2024/04/12 08:01:17;;;;;;;11.93;1.02;;;;;;;;;;5370051;26;20000;-75
2024/04/12 08:04:15;;;;;;;;;;;;;;;;;;5369819;26;20021;-78
2024/04/12 08:09:22;;;;;;;2.95;0.75;;;;;;;;;;5371307;26;20024;-77
2024/04/12 08:11:58;;;;;;;2.65;0.50;;;;;;;;;;5379192;26;20012;-73
2024/04/12 08:14:33;;;;;;;4.82;0.82;;;;;;;;;;5380159;26;20016;-74
2024/04/12 08:17:14;;;;;;;3.85;0.80;;;;;;;;;;5372566;26;20026;-75
2024/04/12 08:19:46;;;;;;;7.25;1.10;;;;;;;;;;5369760;26;20474;-77
2024/04/12 08:22:20;;;;;;;2.20;0.60;;;;;;;;;;5367811;26;20028;-77
2024/04/12 08:24:51;;;;;;;6.45;0.82;;;;;;;;;;5367610;26;20479;-76
2024/04/12 08:27:26;;;;;;;9.23;0.70;;;;;;;;;;5369279;26;20028;-76
2024/04/12 08:29:56;;;;;;;8.05;1.00;;;;;;;;;;5369379;26;20055;-76
2024/04/12 08:32:28;;;;;;;4.05;0.65;;;;;;;;;;5369281;26;20020;-75
2024/04/12 08:35:06;;;;;;;7.32;1.00;;;;;;;;;;5368948;26;20033;-73
2024/04/12 08:37:38;;;;;;;12.43;1.30;;;;;;;;;;5369869;26;19996;-76
2024/04/12 08:40:08;;;;;;;6.57;0.82;;;;;;;;;;5367730;26;20022;-74
2024/04/12 08:42:39;;;;;;;3.40;0.60;;;;;;;;;;5369232;26;20028;-76
2024/04/12 08:45:13;;;;;;;8.13;1.42;;;;;;;;;;5369083;26;20028;-78
2024/04/12 08:48:04;;;;;;;10.50;1.50;;;;;;;;;;5374226;26;20032;-73
2024/04/12 08:50:35;;;;;;;6.50;0.93;;;;;;;;;;5379872;26;20037;-73
2024/04/12 08:53:15;;;;;;;5.93;0.90;;;;;;;;;;5371268;26;20024;-73
2024/04/12 08:55:45;;;;;;;8.98;0.85;;;;;;;;;;5367315;26;20047;-78
2024/04/12 08:58:23;;;;;;;8.20;0.85;;;;;;;;;;5368252;26;20018;-77
2024/04/12 09:00:55;;;;;;;9.85;0.75;;;;;;;;;;5370339;26;19997;-74
2024/04/12 09:03:30;;;;;;;6.38;0.75;;;;;;;;;;5364703;26;19997;-75
2024/04/12 09:06:00;;;;;;;10.25;0.85;;;;;;;;;;5365824;26;20644;-78
2024/04/12 09:08:34;;;;;;;8.63;0.90;;;;;;;;;;5367727;26;20032;-77
2024/04/12 09:11:09;;;;;;;7.75;0.60;;;;;;;;;;5368150;26;20024;-77
2024/04/12 09:13:41;;;;;;;10.88;1.40;;;;;;;;;;5368302;26;20020;-76
2024/04/12 09:16:19;;;;;;;8.68;1.15;;;;;;;;;;5368759;26;20028;-76
2024/04/12 09:18:54;;;;;;;3.50;0.60;;;;;;;;;;5368186;26;20132;-74
2024/04/12 09:21:29;;;;;;;9.48;1.00;;;;;;;;;;5367888;26;20023;-74
2024/04/12 09:24:09;;;;;;;;;;;;;;;;;;5370045;26;20024;-76
2024/04/12 09:26:55;;;;;;;6.57;1.08;;;;;;;;;;5369002;26;19969;-74
2024/04/12 09:29:27;;;;;;;7.60;0.80;;;;;;;;;;5368164;26;20757;-76
2024/04/12 09:34:55;;;;;;;7.18;1.02;;;;;;;;;;5367353;26;20028;-77
2024/04/12 09:37:54;;;;;;;7.07;0.70;;;;;;;;;;5367888;26;20007;-77
2024/04/12 09:40:28;;;;;;;4.93;0.93;;;;;;;;;;5367912;26;20007;-75
2024/04/12 09:45:45;;;;;;;5.82;0.80;;;;;;;;;;5367239;26;20020;-77
2024/04/12 10:37:30;;;;;;;7.43;0.85;;;;;;;;;;5388283;26;20464;-81
2024/04/12 10:40:04;;;;;;;8.70;0.80;;;;;;;;;;5402370;26;20677;-77
2024/04/12 10:42:36;;;;;;;4.15;0.70;;;;;;;;;;5402329;26;20000;-74
2024/04/12 10:45:15;;;;;;;5.78;1.00;;;;;;;;;;5430697;26;20536;-77
2024/04/12 10:47:47;;;;;;;8.13;0.98;;;;;;;;;;5404494;26;20019;-79
2024/04/12 10:50:19;;;;;;;5.10;0.75;;;;;;;;;;5405444;26;20368;-76
2024/04/12 10:52:51;;;;;;;4.00;0.57;;;;;;;;;;5405844;26;21320;-77
2024/04/12 10:55:27;;;;;;;6.38;0.70;;;;;;;;;;5406653;26;20036;-75
2024/04/12 10:58:01;;;;;;;11.13;1.35;;;;;;;;;;5406267;26;20006;-77
2024/04/12 11:00:35;;;;;;;3.28;0.82;;;;;;;;;;5406544;26;20006;-76
2024/04/12 11:03:17;;;;;;;7.13;0.93;;;;;;;;;;5405450;26;20683;-77
2024/04/12 11:06:10;;;;;;;9.48;1.10;;;;;;;;;;5405582;26;20024;-79
2024/04/12 11:08:41;;;;;;;;;;;;;;;;;;5406342;26;20440;-78
2024/04/12 11:11:15;;;;;;;6.75;1.10;;;;;;;;;;5405744;26;20711;-77
2024/04/12 11:13:47;;;;;;;7.63;0.90;;;;;;;;;;5405491;26;20024;-74
2024/04/12 11:33:32;;;;;;;7.03;0.77;;;;;;;;;;5405357;26;20010;-75
2024/04/12 11:36:10;;;;;;;3.65;0.47;;;;;;;;;;5405292;26;20019;-74
2024/04/12 11:38:40;;;;;;;8.93;1.00;;;;;;;;;;5404711;26;20020;-79
2024/04/12 11:41:15;;;;;;;7.25;1.17;;;;;;;;;;5404554;26;20002;-75
2024/04/12 11:43:58;;;;;;;11.70;1.38;;;;;;;;;;5405141;26;20532;-77
2024/04/12 11:46:29;;;;;;;8.70;0.77;;;;;;;;;;5405094;26;20002;-76
2024/04/12 11:49:07;;;;;;;5.88;0.98;;;;;;;;;;5404886;26;20035;-77
2024/04/12 11:51:40;;;;;;;8.20;1.00;;;;;;;;;;5404759;26;20020;-77
2024/04/12 11:54:13;;;;;;;8.80;0.90;;;;;;;;;;5404175;26;20031;-75
2024/04/12 11:56:44;;;;;;;5.53;1.30;;;;;;;;;;5404984;26;20038;-79
2024/04/12 11:59:18;;;;;;;9.55;1.05;;;;;;;;;;5403546;26;20023;-76
2024/04/12 12:01:48;;;;;;;7.25;1.00;;;;;;;;;;5405520;26;19995;-79
2024/04/12 12:04:19;;;;;;;8.02;1.02;;;;;;;;;;5405105;26;20515;-74
2024/04/12 12:06:51;;;;;;;9.07;1.10;;;;;;;;;;5404985;26;20359;-76
2024/04/12 12:09:22;;;;;;;10.52;0.90;;;;;;;;;;5404546;26;20340;-78
2024/04/12 12:11:52;;;;;;;6.60;0.85;;;;;;;;;;5404926;26;20035;-78
2024/04/12 12:14:26;;;;;;;4.22;0.85;;;;;;;;;;5404336;26;20028;-79
2024/04/12 12:16:59;;;;;;;7.82;0.93;;;;;;;;;;5431666;26;20375;-76
2024/04/12 12:19:30;;;;;;;4.78;1.20;;;;;;;;;;5404616;26;20023;-75
2024/04/12 12:22:02;;;;;;;5.78;0.75;;;;;;;;;;5403693;26;20330;-75
2024/04/12 12:24:37;;;;;;;2.65;0.60;;;;;;;;;;5404069;26;20471;-75
2024/04/12 12:27:10;;;;;;;8.32;1.23;;;;;;;;;;5404376;26;20024;-77
2024/04/12 12:29:42;;;;;;;12.55;1.42;;;;;;;;;;5404054;26;20031;-78
2024/04/12 12:32:13;;;;;;;7.38;1.00;;;;;;;;;;5404699;26;20345;-79
2024/04/12 12:34:47;;;;;;;4.47;0.70;;;;;;;;;;5404260;26;20028;-77
2024/04/12 12:37:17;;;;;;;10.43;1.63;;;;;;;;;;5405225;26;20003;-76
2024/04/12 12:39:47;;;;;;;7.15;0.93;;;;;;;;;;5402471;26;20765;-75
2024/04/12 12:42:19;;;;;;;9.50;0.90;;;;;;;;;;5405122;26;20025;-81
2024/04/12 12:44:52;;;;;;;5.00;0.75;;;;;;;;;;5431531;26;19995;-78
2024/04/12 12:47:25;;;;;;;6.13;0.90;;;;;;;;;;5403976;26;20023;-80
2024/04/12 12:50:01;;;;;;;6.03;0.63;;;;;;;;;;5404364;26;20024;-77
2024/04/12 12:52:32;;;;;;;5.65;0.88;;;;;;;;;;5404495;26;20028;-76
2024/04/12 12:55:03;;;;;;;5.30;0.80;;;;;;;;;;5404535;26;20031;-78
2024/04/12 12:57:38;;;;;;;9.65;1.48;;;;;;;;;;5401586;26;20031;-78
2024/04/12 13:00:18;;;;;;;8.10;1.00;;;;;;;;;;5404128;26;20358;-78
2024/04/12 13:02:51;;;;;;;8.60;1.00;;;;;;;;;;5404154;26;19995;-74
2024/04/12 13:05:30;;;;;;;9.52;1.50;;;;;;;;;;5403770;26;20020;-81
2024/04/12 13:08:01;;;;;;;6.82;0.82;;;;;;;;;;5403795;26;20478;-80
2024/04/12 13:10:33;;;;;;;11.68;1.20;;;;;;;;;;5403271;26;20454;-75
2024/04/12 13:13:04;;;;;;;6.60;0.80;;;;;;;;;;5403596;26;20032;-76
2024/04/12 13:15:37;;;;;;;3.15;0.90;;;;;;;;;;5431885;26;20027;-80
2024/04/12 13:18:08;;;;;;;9.98;0.90;;;;;;;;;;5403272;26;20474;-77
2024/04/12 13:20:38;;;;;;;6.18;0.80;;;;;;;;;;5404835;26;20027;-78
2024/04/12 13:23:09;;;;;;;8.50;0.75;;;;;;;;;;5411417;26;20027;-74
2024/04/12 13:25:42;;;;;;;13.07;1.23;;;;;;;;;;5414500;26;20027;-76
2024/04/12 13:28:12;;;;;;;9.75;1.83;;;;;;;;;;5412588;26;20015;-77
2024/04/12 13:30:50;;;;;;;10.32;1.50;;;;;;;;;;5403822;26;20639;-77
2024/04/12 13:33:20;;;;;;;3.97;0.85;;;;;;;;;;5403402;26;21188;-74
2024/04/12 13:35:52;;;;;;;7.50;0.70;;;;;;;;;;5404158;26;20531;-77
2024/04/12 13:38:25;;;;;;;10.05;0.70;;;;;;;;;;5404034;26;20078;-74
2024/04/12 13:41:00;;;;;;;7.90;0.95;;;;;;;;;;5403537;26;20031;-77
2024/04/12 13:43:32;;;;;;;8.07;1.08;;;;;;;;;;5404044;26;20006;-78
2024/04/12 13:51:49;;;;;;;6.30;0.95;;;;;;;;;;5402957;26;20033;-83
2024/04/12 13:54:21;;;;;;;8.40;1.05;;;;;;;;;;5403339;26;20024;-77
2024/04/12 13:56:56;;;;;;;4.85;0.85;;;;;;;;;;5403458;26;20560;-76
2024/04/12 13:59:30;;;;;;;5.22;0.90;;;;;;;;;;5404948;26;20028;-76
2024/04/12 14:02:04;;;;;;;5.47;0.90;;;;;;;;;;5411748;26;20056;-78
2024/04/12 14:04:38;;;;;;;4.35;0.82;;;;;;;;;;5412597;26;20789;-78
2024/04/12 14:07:10;;;;;;;4.85;0.75;;;;;;;;;;5401749;26;20019;-79
2024/04/12 14:09:41;;;;;;;2.90;0.57;;;;;;;;;;5403483;26;20019;-77
2024/04/12 14:12:12;;;;;;;4.85;0.90;;;;;;;;;;5403056;26;20011;-77
2024/04/12 14:14:42;;;;;;;5.47;0.80;;;;;;;;;;5403071;26;20023;-80
2024/04/12 14:17:13;;;;;;;1.90;0.50;;;;;;;;;;5403285;26;20023;-76
2024/04/12 14:19:46;;;;;;;3.78;0.60;;;;;;;;;;5402861;26;20024;-75
2024/04/12 14:22:16;;;;;;;5.97;1.00;;;;;;;;;;5401689;26;20043;-78
2024/04/12 14:25:02;;;;;;;4.68;0.98;;;;;;;;;;5403372;26;20405;-77
2024/04/12 14:27:33;;;;;;;3.65;1.15;;;;;;;;;;5430635;26;19999;-77
2024/04/12 14:30:06;;;;;;;4.28;1.08;;;;;;;;;;5402731;26;20023;-75
2024/04/12 14:32:36;;;;;;;5.57;0.73;;;;;;;;;;5402676;26;20512;-77
2024/04/12 14:35:10;;;;;;;6.05;0.85;;;;;;;;;;5402559;26;20441;-78
2024/04/12 14:37:44;;;;;;;7.45;0.75;;;;;;;;;;5402452;26;20000;-77
2024/04/12 14:40:21;;;;;;;3.97;0.65;;;;;;;;;;5402543;26;20028;-78
2024/04/12 14:42:56;;;;;;;7.05;1.55;;;;;;;;;;5402062;26;20498;-75
2024/04/12 14:45:26;;;;;;;2.72;0.65;;;;;;;;;;5404070;26;20019;-80
2024/04/12 14:47:57;;;;;;;8.25;0.75;;;;;;;;;;5402667;26;20023;-77
2024/04/12 14:50:37;;;;;;;5.68;0.65;;;;;;;;;;5402448;26;20027;-78
2024/04/12 14:53:08;;;;;;;5.25;0.60;;;;;;;;;;5402470;26;20019;-77
2024/04/12 14:55:39;;;;;;;5.40;0.65;;;;;;;;;;5403075;26;20023;-78
2024/04/12 14:58:12;;;;;;;9.77;1.23;;;;;;;;;;5401790;26;20027;-77
2024/04/12 15:00:48;;;;;;;7.43;1.02;;;;;;;;;;5402353;26;20486;-76
2024/04/12 15:48:30;;;;;;;9.73;0.82;;;;;;;;;;5405420;26;20023;-76
2024/04/12 15:51:01;;;;;;;5.97;1.00;;;;;;;;;;5402972;26;20002;-75
2024/04/12 15:53:35;;;;;;;6.57;0.88;;;;;;;;;;5404977;26;20370;-77
2024/04/12 16:12:40;;;;;;;3.22;0.70;;;;;;;;;;5404899;26;20036;-77
2024/04/12 16:15:11;;;;;;;8.25;1.10;;;;;;;;;;5404706;26;20354;-74
2024/04/12 16:17:41;;;;;;;2.85;0.70;;;;;;;;;;5404118;26;20031;-76
2024/04/12 16:20:13;;;;;;;4.53;1.20;;;;;;;;;;5404477;26;20036;-76
2024/04/12 16:22:44;;;;;;;5.63;0.85;;;;;;;;;;5404944;26;20032;-75
2024/04/12 16:25:15;;;;;;;6.82;0.55;;;;;;;;;;5404123;26;20357;-77
2024/04/12 16:27:45;;;;;;;7.18;1.00;;;;;;;;;;5404630;26;20031;-74
2024/04/12 16:30:16;;;;;;;3.20;0.70;;;;;;;;;;5403410;26;20678;-76
2024/04/12 16:32:46;;;;;;;5.65;0.65;;;;;;;;;;5404496;26;20024;-77
2024/04/12 16:35:17;;;;;;;8.50;0.90;;;;;;;;;;5405286;26;20027;-77
2024/04/12 16:37:48;;;;;;;5.30;0.63;;;;;;;;;;5404170;26;20594;-76
2024/04/12 16:40:19;;;;;;;4.45;0.90;;;;;;;;;;5401340;26;19991;-77
2024/04/12 16:42:51;;;;;;;5.25;1.00;;;;;;;;;;5404093;26;20055;-77
2024/04/12 16:45:25;;;;;;;2.42;0.55;;;;;;;;;;5403314;26;20039;-76
2024/04/12 16:47:56;;;;;;;6.40;0.57;;;;;;;;;;5403801;26;20084;-75
2024/04/12 16:50:29;;;;;;;5.95;1.58;;;;;;;;;;5404394;26;20027;-73
2024/04/12 16:53:01;;;;;;;5.78;0.75;;;;;;;;;;5403558;26;20019;-77
2024/04/12 16:55:32;;;;;;;4.40;0.75;;;;;;;;;;5403905;26;20006;-76
2024/04/12 16:58:06;;;;;;;2.58;0.40;;;;;;;;;;5403619;26;20036;-76
2024/04/12 17:00:38;;;;;;;4.70;0.50;;;;;;;;;;5403855;26;20387;-78
2024/04/12 17:03:11;;;;;;;3.97;0.77;;;;;;;;;;5403778;26;20024;-75
2024/04/12 17:05:43;;;;;;;4.80;0.70;;;;;;;;;;5403570;26;20039;-75
2024/04/12 17:08:15;;;;;;;7.63;0.88;;;;;;;;;;5404710;26;20035;-76
2024/04/12 17:10:52;;;;;;;2.50;0.55;;;;;;;;;;5403889;26;20006;-77
2024/04/12 17:13:23;;;;;;;4.43;0.70;;;;;;;;;;5404132;26;20012;-74
2024/04/12 17:15:54;;;;;;;4.40;0.95;;;;;;;;;;5404201;26;20024;-75
2024/04/12 17:18:26;;;;;;;4.50;0.90;;;;;;;;;;5404481;26;20039;-75
2024/04/12 17:21:01;;;;;;;2.60;0.50;;;;;;;;;;5403980;26;20019;-75
2024/04/12 17:23:32;;;;;;;4.97;0.70;;;;;;;;;;5403783;26;20357;-73
2024/04/12 17:26:07;;;;;;;8.18;1.05;;;;;;;;;;5401832;26;20027;-75
2024/04/12 17:28:38;;;;;;;6.53;1.08;;;;;;;;;;5403751;26;20027;-76
2024/04/12 17:31:08;;;;;;;5.68;0.88;;;;;;;;;;5403663;26;20031;-75
2024/04/12 17:33:38;;;;;;;5.97;0.77;;;;;;;;;;5401908;26;20035;-76
2024/04/12 17:36:10;;;;;;;7.53;1.10;;;;;;;;;;5403690;26;20470;-78
2024/04/12 17:38:42;;;;;;;5.93;1.35;;;;;;;;;;5403051;26;20363;-78
2024/04/12 17:41:12;;;;;;;7.25;0.82;;;;;;;;;;5403927;26;20023;-75
2024/04/12 17:43:42;;;;;;;4.18;0.88;;;;;;;;;;5403447;26;20345;-77
2024/04/12 17:46:14;;;;;;;7.80;0.82;;;;;;;;;;5403755;26;20035;-76
2024/04/12 17:48:45;;;;;;;5.03;0.75;;;;;;;;;;5404166;26;20359;-74